Terminal Aerodrome Forecast
Issued by NWS

Home | Current Version | Previous Version | Text Only | Print | Product List | Glossary Off
Versions: 1 2 3 4 5 6 7 8 9 10 11 12 13 14 15 16 17 18 19 20

077
FTUS43 KGRB 201737
TAFAUW
TAF
KAUW 201737Z 2018/2118 29008KT P6SM FEW020 BKN120
     FM210100 VRB03KT P6SM SKC
      TEMPO 2108/2112 3SM BR SCT005
     FM211500 16008KT P6SM SKC=

USA.gov is the U.S. government's official web portal to all federal, state and local government web resources and services.